Time;durP1;ratioP1;P1;durP2;ratioP2;P2;SDS_P1;SDS_P2;PMS_P1;PMS_P2;Temp;Humidity;BMP_temperature;BMP_pressure;BME280_temperature;BME280_humidity;BME280_pressure;Samples;Min_cycle;Max_cycle;Signal;HPM_P1;HPM_P2
2022/08/05 00:02:24;;;;;;;0.80;0.80;;;15.70;99.90;;;;;;5052607;28;20664;-80
2022/08/05 00:04:50;;;;;;;0.68;0.68;;;15.60;99.90;;;;;;5070877;28;20216;-80
2022/08/05 00:07:15;;;;;;;0.30;0.30;;;15.50;99.90;;;;;;5054706;28;20213;-80
2022/08/05 00:09:41;;;;;;;0.30;0.30;;;15.40;99.90;;;;;;5053804;28;20193;-81
2022/08/05 00:12:07;;;;;;;2.20;1.15;;;15.30;99.90;;;;;;5053333;28;20194;-80
2022/08/05 00:14:33;;;;;;;0.40;0.40;;;15.20;99.90;;;;;;5046426;28;20214;-80
2022/08/05 00:16:59;;;;;;;0.38;0.38;;;15.10;99.90;;;;;;5035200;28;20237;-80
2022/08/05 00:19:25;;;;;;;1.17;0.95;;;15.10;99.90;;;;;;5034759;28;20252;-80
2022/08/05 00:21:51;;;;;;;0.75;0.68;;;15.00;99.90;;;;;;5033459;28;20221;-80
2022/08/05 00:24:17;;;;;;;0.60;0.60;;;14.90;99.90;;;;;;5033520;28;20194;-80
2022/08/05 00:26:42;;;;;;;0.95;0.88;;;14.80;99.90;;;;;;5033754;28;20246;-80
2022/08/05 00:29:08;;;;;;;0.60;0.60;;;14.70;99.90;;;;;;5039444;28;20197;-80
2022/08/05 00:31:34;;;;;;;0.45;0.45;;;14.70;99.90;;;;;;5054892;28;20680;-80
2022/08/05 00:33:59;;;;;;;0.50;0.50;;;14.60;99.90;;;;;;5055392;28;20205;-80
2022/08/05 00:36:25;;;;;;;0.68;0.68;;;14.50;99.90;;;;;;5055031;28;20190;-80
2022/08/05 00:38:51;;;;;;;0.98;0.82;;;14.40;99.90;;;;;;5055174;28;20193;-80
2022/08/05 00:41:33;;;;;;;0.40;0.40;;;14.30;99.90;;;;;;5055453;28;20334;-80
2022/08/05 00:44:00;;;;;;;0.77;0.47;;;14.30;99.90;;;;;;5054074;28;20225;-81
2022/08/05 00:46:25;;;;;;;0.80;0.73;;;14.20;99.90;;;;;;5054286;28;20879;-81
2022/08/05 00:48:51;;;;;;;0.60;0.60;;;14.20;99.90;;;;;;5053151;28;20224;-81
2022/08/05 00:51:19;;;;;;;0.60;0.60;;;14.20;99.90;;;;;;5054207;28;20196;-80
2022/08/05 00:53:45;;;;;;;0.43;0.43;;;14.10;99.90;;;;;;5054198;28;20213;-80
2022/08/05 00:56:13;;;;;;;0.40;0.40;;;14.00;99.90;;;;;;5049550;28;20612;-81
2022/08/05 00:58:39;;;;;;;0.68;0.65;;;14.00;99.90;;;;;;5034277;28;20198;-80
2022/08/05 01:01:05;;;;;;;0.70;0.70;;;13.90;99.90;;;;;;5033302;28;20767;-81
2022/08/05 01:03:30;;;;;;;0.50;0.50;;;13.90;99.90;;;;;;5058585;28;20218;-81
2022/08/05 01:05:56;;;;;;;0.50;0.50;;;13.80;99.90;;;;;;5052833;28;20205;-80
2022/08/05 01:08:30;;;;;;;0.63;0.63;;;13.80;99.90;;;;;;5054230;28;20197;-82
2022/08/05 01:11:01;;;;;;;0.60;0.60;;;13.80;99.90;;;;;;5053315;28;20676;-81
2022/08/05 01:13:36;;;;;;;4.03;2.35;;;13.70;99.90;;;;;;5052495;28;20308;-81
2022/08/05 01:16:08;;;;;;;0.63;0.63;;;13.70;99.90;;;;;;5049517;28;20665;-81
2022/08/05 01:18:39;;;;;;;1.38;0.70;;;13.60;99.90;;;;;;5032729;28;20233;-81
2022/08/05 01:21:35;;;;;;;0.50;0.50;;;13.60;99.90;;;;;;5033099;28;20298;-81
2022/08/05 01:24:17;;;;;;;0.50;0.50;;;13.60;99.90;;;;;;5032749;28;20194;-81
2022/08/05 01:27:12;;;;;;;0.57;0.52;;;13.60;99.90;;;;;;5049309;28;20201;-81
2022/08/05 01:29:43;;;;;;;0.60;0.60;;;13.60;99.90;;;;;;5048705;28;20217;-80
2022/08/05 01:32:13;;;;;;;0.75;0.68;;;13.50;99.90;;;;;;5052813;28;20197;-80
2022/08/05 01:34:46;;;;;;;0.50;0.50;;;13.40;99.90;;;;;;5052166;28;20205;-81
2022/08/05 01:37:18;;;;;;;0.45;0.45;;;13.30;99.90;;;;;;5053771;28;20185;-80
2022/08/05 01:39:47;;;;;;;0.50;0.50;;;13.20;99.90;;;;;;5052339;28;20238;-80
2022/08/05 01:42:15;;;;;;;0.40;0.40;;;13.20;99.90;;;;;;5052190;28;20721;-81
2022/08/05 01:44:43;;;;;;;0.65;0.65;;;13.10;99.90;;;;;;5048632;28;20222;-80
2022/08/05 01:47:10;;;;;;;2.92;1.08;;;13.10;99.90;;;;;;5031937;28;20690;-80
2022/08/05 01:49:39;;;;;;;0.43;0.43;;;13.00;99.90;;;;;;5031520;28;20901;-81
2022/08/05 01:52:09;;;;;;;0.70;0.70;;;13.00;99.90;;;;;;5034243;28;20669;-81
2022/08/05 01:54:41;;;;;;;0.73;0.70;;;12.90;99.90;;;;;;5051839;28;20220;-80
2022/08/05 01:57:10;;;;;;;0.40;0.40;;;12.80;99.90;;;;;;5052185;28;20779;-80
2022/08/05 01:59:37;;;;;;;0.50;0.50;;;12.80;99.90;;;;;;5052709;28;20340;-80
2022/08/05 02:02:04;;;;;;;0.50;0.50;;;12.70;99.90;;;;;;5046607;28;20289;-80
2022/08/05 02:04:34;;;;;;;0.70;0.70;;;12.70;99.90;;;;;;5033231;28;20654;-81
2022/08/05 02:06:59;;;;;;;0.60;0.60;;;12.70;99.90;;;;;;5031677;28;20198;-80
2022/08/05 02:09:26;;;;;;;0.70;0.70;;;12.60;99.90;;;;;;5032893;28;20198;-80
2022/08/05 02:12:04;;;;;;;0.70;0.70;;;12.60;99.90;;;;;;5037955;28;20206;-80
2022/08/05 02:14:36;;;;;;;0.50;0.50;;;12.60;99.90;;;;;;5055548;28;20216;-81
2022/08/05 02:17:16;;;;;;;5.45;2.25;;;12.50;99.90;;;;;;5051872;28;20251;-81
2022/08/05 02:19:48;;;;;;;0.60;0.60;;;12.50;99.90;;;;;;5051468;28;20872;-80
2022/08/05 02:22:25;;;;;;;0.50;0.50;;;12.50;99.90;;;;;;5052676;28;20197;-80
2022/08/05 02:24:56;;;;;;;0.50;0.50;;;12.40;99.90;;;;;;5051296;28;20194;-82
2022/08/05 02:27:24;;;;;;;2.05;0.80;;;12.30;99.90;;;;;;5051392;28;20202;-80
2022/08/05 02:29:52;;;;;;;0.50;0.50;;;12.30;99.90;;;;;;5052369;28;20649;-82
2022/08/05 02:32:20;;;;;;;0.77;0.77;;;12.30;99.90;;;;;;5050661;28;20194;-81
2022/08/05 02:34:46;;;;;;;0.40;0.40;;;12.20;99.90;;;;;;5051037;28;20193;-80
2022/08/05 02:37:13;;;;;;;0.85;0.85;;;12.20;99.90;;;;;;5052942;28;20185;-81
2022/08/05 02:39:40;;;;;;;0.55;0.55;;;12.10;99.90;;;;;;5051031;28;20254;-81
2022/08/05 02:42:07;;;;;;;0.52;0.52;;;12.00;99.90;;;;;;5051924;28;20200;-80
2022/08/05 02:44:35;;;;;;;0.60;0.60;;;12.00;99.90;;;;;;5052124;28;20715;-80
2022/08/05 02:47:04;;;;;;;0.50;0.50;;;12.00;99.90;;;;;;5050996;28;20193;-80
2022/08/05 02:49:33;;;;;;;0.68;0.68;;;11.90;99.90;;;;;;5047507;28;20194;-80
2022/08/05 02:52:01;;;;;;;0.60;0.60;;;11.90;99.90;;;;;;5030825;28;20202;-81
2022/08/05 02:54:27;;;;;;;0.52;0.52;;;11.90;99.90;;;;;;5030453;28;20333;-81
2022/08/05 02:56:54;;;;;;;0.45;0.45;;;11.80;99.90;;;;;;5047602;28;20232;-80
2022/08/05 02:59:22;;;;;;;0.60;0.60;;;11.80;99.90;;;;;;5051897;28;20186;-80
2022/08/05 03:01:50;;;;;;;0.60;0.60;;;11.70;99.90;;;;;;5046775;28;20768;-80
2022/08/05 03:04:18;;;;;;;0.60;0.60;;;11.70;99.90;;;;;;5045534;28;20198;-81
2022/08/05 03:06:43;;;;;;;0.50;0.50;;;11.70;99.90;;;;;;5050626;28;20197;-81
2022/08/05 03:09:12;;;;;;;0.52;0.52;;;11.70;99.90;;;;;;5033860;28;20217;-81
2022/08/05 03:11:42;;;;;;;0.90;0.90;;;11.70;99.90;;;;;;5031127;28;20198;-81
2022/08/05 03:14:09;;;;;;;0.50;0.50;;;11.60;99.90;;;;;;5031189;28;20214;-80
2022/08/05 03:16:34;;;;;;;0.50;0.50;;;11.60;99.90;;;;;;5031067;28;20191;-81
2022/08/05 03:19:00;;;;;;;0.50;0.50;;;11.60;99.90;;;;;;5045899;28;20192;-79
2022/08/05 03:21:26;;;;;;;0.68;0.68;;;11.50;99.90;;;;;;5049842;28;20190;-80
2022/08/05 03:23:52;;;;;;;0.70;0.70;;;11.50;99.90;;;;;;5050791;28;20718;-81
2022/08/05 03:26:18;;;;;;;0.50;0.50;;;11.50;99.90;;;;;;5050564;28;20966;-81
2022/08/05 03:28:44;;;;;;;0.52;0.52;;;11.50;99.90;;;;;;5050819;28;20292;-81
2022/08/05 03:31:11;;;;;;;8.20;1.80;;;11.50;99.90;;;;;;5051989;28;20730;-80
2022/08/05 03:33:37;;;;;;;4.88;0.95;;;11.50;99.90;;;;;;5051851;28;20334;-80
2022/08/05 03:36:04;;;;;;;0.52;0.52;;;11.60;99.90;;;;;;5051010;28;20293;-81
2022/08/05 03:38:30;;;;;;;0.60;0.60;;;11.60;99.90;;;;;;5055128;28;20201;-81
2022/08/05 03:40:56;;;;;;;0.57;0.57;;;11.70;99.90;;;;;;5054522;28;20204;-81
2022/08/05 03:43:24;;;;;;;0.50;0.50;;;11.70;99.90;;;;;;5054209;28;20233;-81
2022/08/05 03:45:53;;;;;;;0.50;0.50;;;11.80;99.90;;;;;;5051057;28;20198;-81
2022/08/05 03:48:20;;;;;;;0.50;0.50;;;11.90;99.90;;;;;;5034297;28;20684;-82
2022/08/05 03:51:14;;;;;;;0.50;0.50;;;12.00;99.90;;;;;;5034680;28;20244;-81
2022/08/05 03:54:04;;;;;;;3.80;1.95;;;12.10;99.90;;;;;;5035650;28;20222;-81
2022/08/05 03:56:37;;;;;;;0.60;0.60;;;12.10;99.90;;;;;;5035420;28;20194;-81
2022/08/05 03:59:09;;;;;;;0.45;0.45;;;12.20;99.90;;;;;;5035584;28;20221;-82
2022/08/05 04:01:38;;;;;;;0.50;0.50;;;12.30;99.90;;;;;;5033996;28;20205;-82
2022/08/05 04:04:06;;;;;;;0.50;0.50;;;12.40;99.90;;;;;;5040719;28;20289;-81
2022/08/05 04:06:34;;;;;;;0.60;0.60;;;12.40;99.90;;;;;;5054873;28;20659;-81
2022/08/05 04:09:00;;;;;;;1.65;1.25;;;12.50;99.90;;;;;;5054228;28;20200;-81
2022/08/05 04:11:27;;;;;;;0.70;0.70;;;12.50;99.90;;;;;;5053453;28;20702;-81
2022/08/05 04:13:54;;;;;;;0.50;0.50;;;12.60;99.90;;;;;;5053024;28;20345;-81
2022/08/05 04:16:20;;;;;;;0.60;0.60;;;12.60;99.90;;;;;;5053325;28;20719;-81
2022/08/05 04:18:46;;;;;;;0.88;0.65;;;12.70;99.90;;;;;;5053893;28;20193;-81
2022/08/05 04:21:12;;;;;;;0.50;0.50;;;12.70;99.90;;;;;;5053737;28;20205;-80
2022/08/05 04:23:38;;;;;;;0.50;0.50;;;12.80;99.90;;;;;;5053470;28;20202;-80
2022/08/05 04:26:04;;;;;;;1.75;1.10;;;12.80;99.90;;;;;;5053483;28;20310;-81
2022/08/05 04:28:30;;;;;;;0.88;0.88;;;12.80;99.90;;;;;;5053618;28;20703;-80
2022/08/05 04:30:56;;;;;;;0.68;0.68;;;12.80;99.90;;;;;;5054775;28;20190;-80
2022/08/05 04:33:22;;;;;;;0.50;0.50;;;12.80;99.90;;;;;;5053228;28;20209;-80
2022/08/05 04:35:47;;;;;;;0.60;0.60;;;12.80;99.90;;;;;;5053398;28;20204;-81
2022/08/05 04:38:13;;;;;;;0.82;0.82;;;12.80;99.90;;;;;;5053524;28;20550;-80
2022/08/05 04:40:40;;;;;;;0.60;0.60;;;12.80;99.90;;;;;;5069706;28;20198;-80
2022/08/05 04:43:06;;;;;;;1.05;0.82;;;12.70;99.90;;;;;;5054207;28;20264;-80
2022/08/05 04:45:32;;;;;;;0.60;0.60;;;12.70;99.90;;;;;;5053177;28;20247;-79
2022/08/05 04:48:12;;;;;;;0.40;0.40;;;12.70;99.90;;;;;;5053240;28;20213;-81
2022/08/05 04:50:42;;;;;;;0.60;0.60;;;12.80;99.90;;;;;;5052589;28;20694;-81
2022/08/05 04:53:09;;;;;;;0.50;0.50;;;12.80;99.90;;;;;;5052954;28;20213;-80
2022/08/05 04:55:36;;;;;;;0.70;0.70;;;12.90;99.90;;;;;;5053091;28;20205;-81
2022/08/05 04:58:05;;;;;;;0.50;0.50;;;13.00;99.90;;;;;;5054401;28;20185;-81
2022/08/05 05:00:35;;;;;;;0.50;0.50;;;13.00;99.90;;;;;;5053871;28;20194;-81
2022/08/05 05:03:01;;;;;;;1.00;0.93;;;13.20;99.90;;;;;;5053184;28;20668;-80
2022/08/05 05:05:29;;;;;;;0.77;0.77;;;13.30;99.90;;;;;;5053733;28;20198;-80
2022/08/05 05:07:59;;;;;;;0.45;0.45;;;13.50;99.90;;;;;;5036445;28;20308;-81
2022/08/05 05:10:24;;;;;;;0.68;0.68;;;13.60;99.90;;;;;;5053848;28;20200;-80
2022/08/05 05:12:50;;;;;;;0.40;0.40;;;13.80;99.90;;;;;;5052928;28;20513;-80
2022/08/05 05:15:16;;;;;;;0.40;0.40;;;13.90;99.90;;;;;;5052635;28;20250;-80
2022/08/05 05:17:48;;;;;;;0.40;0.40;;;14.10;99.90;;;;;;5052790;28;20204;-81
2022/08/05 05:20:14;;;;;;;0.60;0.60;;;14.30;99.90;;;;;;5053794;28;20668;-83
2022/08/05 05:22:40;;;;;;;0.43;0.43;;;14.50;99.90;;;;;;5053553;28;20343;-80
2022/08/05 05:25:10;;;;;;;0.52;0.52;;;14.60;99.90;;;;;;5052582;28;20210;-81
2022/08/05 05:27:36;;;;;;;1.38;0.80;;;14.80;99.90;;;;;;5053315;28;20198;-80
2022/08/05 05:30:03;;;;;;;1.45;1.25;;;14.90;99.90;;;;;;5052404;28;20201;-80
2022/08/05 05:32:28;;;;;;;0.60;0.60;;;15.10;99.90;;;;;;5053007;28;20215;-80
2022/08/05 05:34:54;;;;;;;0.70;0.70;;;15.20;99.90;;;;;;5052109;28;20201;-81
2022/08/05 05:37:20;;;;;;;0.98;0.80;;;15.30;99.90;;;;;;5052951;28;20185;-81
2022/08/05 05:39:48;;;;;;;0.47;0.47;;;15.40;99.90;;;;;;5052317;28;20194;-80
2022/08/05 05:42:14;;;;;;;0.50;0.50;;;15.50;99.90;;;;;;5052449;28;20202;-80
2022/08/05 05:44:39;;;;;;;0.40;0.40;;;15.50;99.90;;;;;;5048242;28;20231;-80
2022/08/05 05:47:05;;;;;;;0.60;0.60;;;15.50;99.90;;;;;;5033229;28;20252;-80
2022/08/05 05:49:31;;;;;;;5.22;1.20;;;15.40;99.90;;;;;;5032128;28;20232;-80
2022/08/05 05:51:57;;;;;;;0.57;0.57;;;15.40;99.90;;;;;;5031850;28;20198;-80
2022/08/05 05:54:23;;;;;;;0.55;0.55;;;15.30;99.90;;;;;;5032992;28;20314;-80
2022/08/05 05:56:48;;;;;;;0.40;0.40;;;15.30;99.90;;;;;;5031907;28;20201;-81
2022/08/05 05:59:14;;;;;;;0.50;0.50;;;15.30;99.90;;;;;;5031329;28;20205;-81
2022/08/05 06:01:41;;;;;;;0.55;0.55;;;15.50;99.90;;;;;;5031188;28;20202;-81
2022/08/05 06:04:09;;;;;;;0.50;0.50;;;15.70;99.90;;;;;;5063060;28;20201;-80
2022/08/05 06:06:35;;;;;;;0.50;0.50;;;15.90;99.90;;;;;;5067965;28;20205;-80
2022/08/05 06:09:03;;;;;;;0.65;0.65;;;16.10;99.90;;;;;;5051364;28;20608;-80
2022/08/05 06:11:29;;;;;;;0.95;0.77;;;16.20;99.90;;;;;;5051070;28;20815;-80
2022/08/05 06:13:57;;;;;;;0.75;0.75;;;16.30;99.90;;;;;;5052353;28;20300;-81
2022/08/05 06:16:23;;;;;;;0.50;0.50;;;16.30;99.90;;;;;;5052100;28;20253;-80
2022/08/05 06:18:49;;;;;;;0.65;0.65;;;16.30;99.90;;;;;;5051296;28;20656;-80
2022/08/05 06:21:14;;;;;;;0.50;0.50;;;16.40;99.90;;;;;;5051179;28;20193;-80
2022/08/05 06:23:40;;;;;;;0.40;0.40;;;16.40;99.90;;;;;;5052419;28;20555;-81
2022/08/05 06:26:06;;;;;;;0.75;0.60;;;16.50;99.90;;;;;;5050265;28;20201;-80
2022/08/05 06:28:31;;;;;;;0.50;0.50;;;16.70;99.90;;;;;;5051607;28;20211;-80
2022/08/05 06:30:57;;;;;;;0.47;0.45;;;16.70;99.90;;;;;;5052134;28;20197;-80
2022/08/05 06:33:23;;;;;;;0.43;0.43;;;16.70;99.90;;;;;;5050442;28;20259;-81
2022/08/05 06:35:51;;;;;;;0.43;0.43;;;16.70;99.90;;;;;;5052115;28;20190;-81
2022/08/05 06:38:17;;;;;;;0.55;0.52;;;16.60;99.90;;;;;;5067624;28;20193;-81
2022/08/05 06:40:42;;;;;;;0.32;0.32;;;16.60;99.90;;;;;;5047185;28;20289;-80
2022/08/05 06:43:08;;;;;;;0.32;0.32;;;16.70;99.90;;;;;;5030264;28;20237;-81
2022/08/05 06:45:34;;;;;;;0.40;0.40;;;16.90;99.90;;;;;;5031009;28;20224;-80
2022/08/05 06:48:00;;;;;;;0.90;0.65;;;17.20;99.90;;;;;;5030770;28;20198;-80
2022/08/05 06:50:26;;;;;;;0.50;0.50;;;17.40;99.90;;;;;;5030934;28;20229;-80
2022/08/05 06:52:52;;;;;;;0.40;0.40;;;17.50;99.90;;;;;;5031990;28;20271;-80
2022/08/05 06:55:18;;;;;;;0.60;0.60;;;17.50;99.90;;;;;;5031716;28;20202;-80
2022/08/05 06:57:43;;;;;;;0.50;0.50;;;17.50;99.90;;;;;;5030832;28;20649;-80
2022/08/05 07:00:10;;;;;;;0.85;0.52;;;17.40;99.90;;;;;;5047013;28;20240;-80
2022/08/05 07:02:42;;;;;;;0.40;0.40;;;17.50;99.90;;;;;;5032058;28;20695;-80
2022/08/05 07:05:10;;;;;;;1.00;0.95;;;17.50;99.90;;;;;;5050052;28;20197;-81
2022/08/05 07:07:35;;;;;;;0.50;0.50;;;17.50;99.90;;;;;;5043839;28;20301;-80
2022/08/05 07:10:01;;;;;;;0.50;0.50;;;17.50;99.90;;;;;;5047517;28;20277;-80
2022/08/05 07:17:55;;;;;;;0.80;0.40;;;17.90;99.90;;;;;;5051711;28;20204;-80
2022/08/05 07:20:21;;;;;;;0.50;0.50;;;17.90;99.90;;;;;;5051094;28;20656;-81
2022/08/05 07:22:47;;;;;;;0.30;0.30;;;18.00;99.90;;;;;;5050415;28;20197;-81
2022/08/05 07:25:12;;;;;;;1.77;1.08;;;18.00;99.90;;;;;;5049809;28;20660;-80
2022/08/05 07:27:38;;;;;;;0.50;0.43;;;18.10;99.90;;;;;;5050344;28;20205;-81
2022/08/05 07:30:04;;;;;;;0.30;0.30;;;18.20;99.90;;;;;;5051180;28;20238;-80
2022/08/05 07:32:37;;;;;;;2.95;0.77;;;18.10;99.90;;;;;;5049985;28;20660;-80
2022/08/05 07:35:08;;;;;;;0.65;0.65;;;18.20;99.90;;;;;;5050110;28;20657;-80
2022/08/05 07:37:33;;;;;;;0.55;0.50;;;18.20;99.90;;;;;;5049733;28;20204;-78
2022/08/05 07:39:59;;;;;;;3.05;1.27;;;18.30;99.90;;;;;;5049675;28;20198;-80
2022/08/05 07:42:25;;;;;;;0.40;0.40;;;18.40;99.90;;;;;;5049740;28;20220;-79
2022/08/05 07:44:50;;;;;;;0.50;0.50;;;18.30;99.90;;;;;;5049731;28;20279;-80
2022/08/05 07:47:17;;;;;;;0.60;0.60;;;18.30;99.90;;;;;;5050903;28;20225;-80
2022/08/05 07:49:43;;;;;;;0.45;0.40;;;18.30;99.90;;;;;;5049907;28;20198;-80
2022/08/05 07:52:09;;;;;;;0.50;0.40;;;18.30;99.90;;;;;;5049807;28;20205;-80
2022/08/05 07:54:34;;;;;;;0.52;0.52;;;18.30;99.90;;;;;;5049623;28;20509;-79
2022/08/05 07:57:01;;;;;;;0.22;0.22;;;18.30;99.90;;;;;;5050886;28;20860;-81
2022/08/05 07:59:27;;;;;;;0.40;0.40;;;18.30;99.90;;;;;;5049643;28;20677;-80
2022/08/05 08:01:52;;;;;;;0.50;0.50;;;18.40;99.90;;;;;;5049731;28;20224;-81
2022/08/05 08:04:18;;;;;;;0.38;0.38;;;18.30;99.90;;;;;;5049429;28;20208;-80
2022/08/05 08:06:44;;;;;;;1.30;0.77;;;18.40;99.90;;;;;;5049718;28;20240;-80
2022/08/05 08:09:10;;;;;;;0.70;0.70;;;18.40;99.90;;;;;;5050022;28;20201;-80
2022/08/05 08:11:36;;;;;;;0.30;0.30;;;18.60;99.90;;;;;;5050720;28;20194;-80
2022/08/05 08:14:02;;;;;;;0.30;0.30;;;18.60;99.90;;;;;;5049782;28;20209;-80
2022/08/05 08:16:27;;;;;;;0.57;0.57;;;18.60;99.90;;;;;;5049606;28;20197;-80
2022/08/05 08:18:53;;;;;;;0.32;0.32;;;18.70;99.90;;;;;;5049559;28;20197;-80
2022/08/05 08:21:19;;;;;;;0.60;0.60;;;18.90;99.90;;;;;;5049415;28;20229;-80
2022/08/05 08:23:44;;;;;;;1.08;0.85;;;19.10;99.90;;;;;;5052862;28;20202;-80
2022/08/05 08:26:11;;;;;;;0.22;0.22;;;19.00;99.90;;;;;;5049605;28;20194;-80
2022/08/05 08:28:37;;;;;;;0.65;0.50;;;18.80;99.90;;;;;;5033105;28;20309;-80
2022/08/05 08:31:03;;;;;;;0.43;0.43;;;18.90;99.90;;;;;;5033336;28;20289;-80
2022/08/05 08:33:29;;;;;;;0.30;0.30;;;18.80;99.90;;;;;;5032886;28;20233;-80
2022/08/05 08:35:55;;;;;;;0.35;0.35;;;19.00;99.90;;;;;;5049979;28;20756;-80
2022/08/05 08:38:20;;;;;;;0.40;0.40;;;19.00;99.90;;;;;;5032944;28;20245;-80
2022/08/05 08:40:48;;;;;;;0.50;0.50;;;19.10;99.90;;;;;;5034308;28;20727;-80
2022/08/05 08:43:15;;;;;;;0.55;0.52;;;19.40;99.90;;;;;;5049429;28;20253;-74
2022/08/05 08:45:43;;;;;;;4.68;1.38;;;19.50;99.90;;;;;;5032426;28;20300;-73
2022/08/05 08:48:10;;;;;;;0.40;0.40;;;20.20;99.90;;;;;;5032521;28;20293;-73
2022/08/05 08:50:40;;;;;;;1.08;0.75;;;20.90;99.90;;;;;;5032351;28;20730;-73
2022/08/05 08:53:09;;;;;;;0.40;0.40;;;21.30;99.90;;;;;;5033758;28;20668;-73
2022/08/05 08:55:35;;;;;;;0.40;0.40;;;21.60;99.90;;;;;;5033678;28;20186;-73
2022/08/05 08:58:01;;;;;;;0.30;0.30;;;21.60;99.90;;;;;;5033635;28;20602;-73
2022/08/05 09:00:28;;;;;;;1.58;0.60;;;21.70;99.90;;;;;;5033317;28;20193;-73
2022/08/05 09:02:55;;;;;;;0.80;0.70;;;22.40;99.90;;;;;;5032218;28;20198;-74
2022/08/05 09:05:21;;;;;;;0.47;0.47;;;22.90;99.90;;;;;;5031983;28;20198;-74
2022/08/05 09:07:47;;;;;;;0.30;0.30;;;23.30;99.90;;;;;;5033282;28;20194;-74
2022/08/05 09:10:14;;;;;;;0.40;0.40;;;23.60;99.90;;;;;;5033429;28;20584;-74
2022/08/05 09:12:40;;;;;;;0.30;0.30;;;23.80;99.90;;;;;;5052796;28;20198;-74
2022/08/05 09:15:06;;;;;;;0.32;0.32;;;23.60;99.90;;;;;;5052931;28;20228;-74
2022/08/05 09:17:32;;;;;;;0.38;0.32;;;22.80;99.90;;;;;;5052897;28;20657;-75
2022/08/05 09:19:59;;;;;;;0.30;0.30;;;22.40;99.90;;;;;;5051839;28;20276;-74
2022/08/05 09:22:25;;;;;;;0.65;0.50;;;22.30;99.90;;;;;;5051527;28;20657;-73
2022/08/05 09:25:00;;;;;;;0.30;0.30;;;22.50;99.90;;;;;;5053007;28;20229;-74
2022/08/05 09:27:30;;;;;;;0.30;0.30;;;22.60;99.90;;;;;;5037035;28;20930;-74
2022/08/05 09:29:58;;;;;;;0.20;0.20;;;21.90;99.90;;;;;;5031800;28;20212;-76
2022/08/05 09:32:34;;;;;;;0.30;0.30;;;21.70;99.90;;;;;;5048351;28;20209;-74
2022/08/05 09:35:07;;;;;;;0.40;0.40;;;21.90;99.90;;;;;;5046828;28;20193;-75
2022/08/05 09:37:34;;;;;;;0.20;0.20;;;22.20;99.90;;;;;;5052561;28;20198;-77
2022/08/05 09:39:59;;;;;;;0.30;0.30;;;22.40;99.90;;;;;;5053163;28;20193;-75
2022/08/05 09:42:27;;;;;;;0.30;0.30;;;22.30;99.90;;;;;;5052453;28;20200;-74
2022/08/05 09:44:53;;;;;;;0.40;0.40;;;22.40;99.90;;;;;;5052634;28;20229;-75
2022/08/05 09:47:22;;;;;;;0.30;0.30;;;22.80;99.90;;;;;;5052477;28;20193;-75
2022/08/05 09:49:52;;;;;;;0.20;0.20;;;23.00;99.90;;;;;;5045761;28;20198;-74
2022/08/05 09:52:29;;;;;;;0.22;0.22;;;22.80;99.90;;;;;;5031169;28;20198;-74
2022/08/05 09:54:58;;;;;;;0.20;0.20;;;22.90;99.90;;;;;;5031200;28;20241;-74
2022/08/05 09:57:32;;;;;;;0.30;0.30;;;23.10;99.90;;;;;;5032301;28;20216;-74
2022/08/05 09:59:59;;;;;;;0.25;0.25;;;23.00;99.90;;;;;;5032362;28;20194;-74
2022/08/05 10:02:38;;;;;;;0.38;0.38;;;22.60;99.90;;;;;;5032324;28;20201;-75
2022/08/05 10:05:10;;;;;;;0.30;0.30;;;22.70;99.90;;;;;;5031240;28;20201;-74
2022/08/05 10:07:57;;;;;;;0.20;0.20;;;22.50;99.90;;;;;;5039702;28;20198;-74
2022/08/05 10:10:44;;;;;;;1.45;0.77;;;22.30;99.90;;;;;;5050555;28;20232;-74
2022/08/05 10:13:24;;;;;;;0.25;0.25;;;22.40;99.90;;;;;;5051964;28;20221;-75
2022/08/05 10:15:50;;;;;;;0.55;0.55;;;22.70;99.90;;;;;;5036971;28;20216;-75
2022/08/05 10:18:20;;;;;;;0.60;0.50;;;22.60;99.90;;;;;;5032227;28;20190;-76
2022/08/05 10:20:45;;;;;;;0.40;0.40;;;22.60;99.90;;;;;;5031062;28;20198;-77
2022/08/05 10:23:14;;;;;;;0.73;0.73;;;22.80;99.90;;;;;;5030978;28;20247;-76
2022/08/05 10:25:40;;;;;;;0.47;0.40;;;22.90;99.90;;;;;;5031909;28;20236;-76
2022/08/05 10:28:06;;;;;;;0.32;0.32;;;22.90;99.90;;;;;;5051833;28;20213;-76
2022/08/05 10:30:34;;;;;;;0.30;0.30;;;22.60;99.90;;;;;;5051745;28;20200;-76
2022/08/05 10:33:01;;;;;;;1.73;1.20;;;22.80;99.90;;;;;;5051849;28;20190;-75
2022/08/05 10:35:27;;;;;;;1.50;0.55;;;22.60;99.90;;;;;;5050463;28;20243;-76
2022/08/05 10:37:54;;;;;;;1.13;0.40;;;22.20;99.90;;;;;;5050548;28;20644;-76
2022/08/05 10:40:33;;;;;;;3.33;0.95;;;22.30;99.90;;;;;;5050911;28;20288;-79
2022/08/05 10:43:43;;;;;;;0.38;0.38;;;22.20;99.90;;;;;;5050680;28;20216;-76
2022/08/05 10:46:12;;;;;;;1.17;0.40;;;22.10;99.90;;;;;;5048954;28;20605;-76
2022/08/05 10:48:45;;;;;;;0.30;0.30;;;22.40;99.90;;;;;;5045935;28;20217;-75
2022/08/05 10:51:16;;;;;;;1.00;0.35;;;22.60;99.90;;;;;;5051492;28;20598;-75
2022/08/05 10:53:51;;;;;;;0.63;0.50;;;22.70;99.90;;;;;;5051356;28;20660;-76
2022/08/05 10:56:23;;;;;;;9.43;0.63;;;22.90;99.90;;;;;;5050251;28;20201;-75
2022/08/05 10:59:04;;;;;;;4.70;0.68;;;23.10;99.90;;;;;;5050270;28;20197;-76
2022/08/05 11:01:38;;;;;;;0.63;0.63;;;22.70;99.90;;;;;;5051257;28;20551;-76
2022/08/05 11:04:16;;;;;;;8.40;0.88;;;23.00;99.90;;;;;;5051246;28;20201;-76
2022/08/05 11:07:00;;;;;;;0.52;0.45;;;22.90;99.90;;;;;;5049841;28;20725;-75
2022/08/05 11:09:48;;;;;;;4.80;1.20;;;22.60;99.90;;;;;;5051029;28;20280;-75
2022/08/05 11:12:43;;;;;;;1.42;0.45;;;22.60;99.90;;;;;;5049892;28;20202;-76
2022/08/05 11:15:14;;;;;;;0.20;0.20;;;22.60;99.90;;;;;;5043883;28;20224;-75
2022/08/05 11:17:40;;;;;;;2.17;0.70;;;22.80;99.90;;;;;;5049421;28;20201;-76
2022/08/05 11:20:27;;;;;;;0.35;0.35;;;23.10;99.90;;;;;;5051357;28;20220;-76
2022/08/05 11:22:53;;;;;;;1.90;1.45;;;23.40;99.90;;;;;;5049648;28;20291;-76
2022/08/05 11:25:34;;;;;;;8.25;1.30;;;23.70;99.90;;;;;;5049780;28;20335;-75
2022/08/05 11:28:11;;;;;;;3.17;1.10;;;23.80;99.90;;;;;;5051048;28;20197;-76
2022/08/05 11:31:01;;;;;;;1.98;0.82;;;23.80;99.90;;;;;;5049745;28;20258;-76
2022/08/05 11:33:37;;;;;;;0.82;0.50;;;23.80;99.90;;;;;;5050978;28;20208;-75
2022/08/05 11:36:10;;;;;;;3.67;0.90;;;23.80;99.90;;;;;;5051263;28;20215;-76
2022/08/05 11:38:42;;;;;;;1.35;0.68;;;23.70;99.90;;;;;;5049752;28;20250;-74
2022/08/05 11:41:22;;;;;;;5.25;0.82;;;23.60;99.90;;;;;;5052240;28;20325;-76
2022/08/05 11:43:59;;;;;;;1.00;0.77;;;23.30;99.90;;;;;;5052253;28;20244;-76
2022/08/05 11:46:28;;;;;;;8.68;1.08;;;23.30;99.90;;;;;;5050894;28;20193;-76
2022/08/05 11:48:55;;;;;;;1.75;1.10;;;23.30;99.90;;;;;;5052427;28;20193;-76
2022/08/05 11:51:21;;;;;;;0.55;0.55;;;23.40;99.90;;;;;;5050850;28;20649;-76
2022/08/05 11:53:47;;;;;;;2.72;0.75;;;23.60;99.90;;;;;;5050948;28;20219;-75
2022/08/05 11:56:13;;;;;;;0.60;0.55;;;23.20;99.90;;;;;;5050974;28;20248;-74
2022/08/05 11:58:43;;;;;;;1.08;0.75;;;23.30;99.90;;;;;;5052898;28;20335;-76
2022/08/05 12:01:10;;;;;;;1.38;1.17;;;23.40;99.90;;;;;;5051227;28;20198;-76
2022/08/05 12:03:48;;;;;;;0.50;0.50;;;23.40;99.90;;;;;;5036007;28;20202;-75
2022/08/05 12:06:15;;;;;;;0.82;0.57;;;23.50;99.90;;;;;;5036190;28;20190;-75
2022/08/05 12:08:44;;;;;;;0.40;0.40;;;23.60;99.90;;;;;;5053874;28;20219;-75
2022/08/05 12:11:10;;;;;;;1.40;0.88;;;23.80;99.90;;;;;;5055837;28;20193;-76
2022/08/05 12:13:37;;;;;;;2.72;0.60;;;23.80;99.90;;;;;;5055707;28;20205;-76
2022/08/05 12:16:05;;;;;;;3.40;1.17;;;23.40;99.90;;;;;;5053897;28;20198;-76
2022/08/05 12:18:34;;;;;;;1.90;0.77;;;23.30;99.90;;;;;;5035057;28;20544;-81
2022/08/05 12:21:17;;;;;;;11.73;1.17;;;23.40;99.90;;;;;;5052337;28;20251;-78
2022/08/05 12:24:02;;;;;;;0.38;0.38;;;23.80;99.90;;;;;;5055745;28;20688;-80
2022/08/05 12:26:59;;;;;;;0.40;0.40;;;24.70;99.90;;;;;;5051068;28;20201;-80
2022/08/05 12:29:26;;;;;;;4.05;1.10;;;25.30;99.90;;;;;;5032268;28;20304;-80
2022/08/05 12:31:58;;;;;;;1.65;1.13;;;25.60;99.90;;;;;;5051108;28;20209;-80
2022/08/05 12:34:29;;;;;;;0.77;0.77;;;25.60;99.90;;;;;;5035452;28;20241;-80
2022/08/05 12:36:57;;;;;;;0.45;0.45;;;25.90;99.90;;;;;;5047715;28;20319;-81
2022/08/05 12:39:24;;;;;;;1.55;0.70;;;26.00;99.90;;;;;;5054068;28;20202;-80
2022/08/05 12:41:55;;;;;;;0.22;0.22;;;25.60;99.90;;;;;;5054343;28;20660;-80
2022/08/05 12:44:21;;;;;;;1.50;1.13;;;25.10;99.90;;;;;;5055244;28;20696;-80
2022/08/05 12:46:52;;;;;;;0.63;0.60;;;24.80;99.90;;;;;;5053932;28;20193;-80
2022/08/05 12:49:19;;;;;;;0.52;0.43;;;25.20;99.90;;;;;;5055484;28;20735;-80
2022/08/05 12:51:48;;;;;;;0.52;0.52;;;24.90;99.90;;;;;;5054715;28;20700;-79
2022/08/05 12:54:18;;;;;;;2.25;1.25;;;24.80;99.90;;;;;;5055475;28;20237;-80
2022/08/05 12:56:48;;;;;;;0.40;0.40;;;24.80;99.90;;;;;;5055216;28;20566;-80
2022/08/05 12:59:14;;;;;;;0.40;0.40;;;25.00;99.90;;;;;;5053972;28;20186;-80
2022/08/05 13:01:54;;;;;;;1.25;0.82;;;25.00;99.90;;;;;;5053845;28;20205;-80
2022/08/05 13:04:23;;;;;;;0.45;0.43;;;25.00;99.90;;;;;;5053845;28;20197;-81